createdAt,value
2023-01-28T00:00:18.944Z,103146.97
2023-01-28T00:02:49.645Z,103149.28
2023-01-28T00:05:17.654Z,103160.63
2023-01-28T00:07:45.846Z,103168.47
2023-01-28T00:10:13.630Z,103184.25
2023-01-28T00:12:44.417Z,103167.59
2023-01-28T00:15:13.277Z,103171.09
2023-01-28T00:17:42.400Z,103167.63
2023-01-28T00:20:17.075Z,103158.97
2023-01-28T00:22:51.776Z,103163.16
2023-01-28T00:25:20.649Z,103159.72
2023-01-28T00:27:51.238Z,103155.41
2023-01-28T00:30:19.630Z,103152.72
2023-01-28T00:32:47.721Z,103151.88
2023-01-28T00:35:16.679Z,103151.59
2023-01-28T00:37:46.920Z,103154.22
2023-01-28T00:40:15.274Z,103152.38
2023-01-28T00:42:43.513Z,103144.47
2023-01-28T00:45:14.316Z,103151.66
2023-01-28T00:47:42.492Z,103140.09
2023-01-28T00:50:11.615Z,103153.44
2023-01-28T00:52:39.562Z,103140.84
2023-01-28T00:55:09.105Z,103134.56
2023-01-28T00:57:37.056Z,103157.88
2023-01-28T01:00:06.350Z,103153.44
2023-01-28T01:02:36.857Z,103143.81
2023-01-28T01:05:06.620Z,103146.31
2023-01-28T01:07:41.586Z,103134.69
2023-01-28T01:10:14.638Z,103149.88
2023-01-28T01:12:43.288Z,103134.03
2023-01-28T01:15:12.320Z,103149.75
2023-01-28T01:17:43.779Z,103150.59
2023-01-28T01:20:15.245Z,103160.44
2023-01-28T01:22:44.130Z,103153.44
2023-01-28T01:25:14.809Z,103142.53
2023-01-28T01:27:44.968Z,103153.88
2023-01-28T01:30:14.546Z,103156.66
2023-01-28T01:32:46.594Z,103160.09
2023-01-28T01:35:15.025Z,103154.09
2023-01-28T01:37:45.660Z,103153.19
2023-01-28T01:40:14.821Z,103157.59
2023-01-28T01:42:50.085Z,103160.22
2023-01-28T01:45:18.561Z,103158.19
2023-01-28T01:47:51.524Z,103163.53
2023-01-28T01:50:27.548Z,103164.44
2023-01-28T01:53:02.829Z,103155.38
2023-01-28T01:55:33.749Z,103167.22
2023-01-28T01:58:06.683Z,103177.56
2023-01-28T02:00:34.741Z,103161.88
2023-01-28T02:03:06.121Z,103163.47
2023-01-28T02:05:34.256Z,103175.00
2023-01-28T02:08:17.357Z,103166.22
2023-01-28T02:10:46.010Z,103153.66
2023-01-28T02:13:16.750Z,103162.72
2023-01-28T02:15:45.853Z,103157.22
2023-01-28T02:18:15.159Z,103172.31
2023-01-28T02:21:05.011Z,103179.22
2023-01-28T02:24:02.934Z,103182.53
2023-01-28T02:26:51.033Z,103185.06
2023-01-28T02:29:25.480Z,103163.75
2023-01-28T02:31:57.710Z,103173.66
2023-01-28T02:34:35.752Z,103161.31
2023-01-28T02:37:10.305Z,103164.06
2023-01-28T02:39:43.121Z,103165.72
2023-01-28T02:42:18.048Z,103173.56
2023-01-28T02:44:47.429Z,103163.00
2023-01-28T02:47:34.567Z,103171.78
2023-01-28T02:50:05.743Z,103150.75
2023-01-28T02:53:08.546Z,103165.00
2023-01-28T02:56:02.635Z,103180.56
2023-01-28T02:58:37.318Z,103169.34
2023-01-28T03:01:16.740Z,103161.38
2023-01-28T03:04:02.568Z,103156.09
2023-01-28T03:06:35.820Z,103162.34
2023-01-28T03:09:24.048Z,103161.59
2023-01-28T03:12:14.110Z,103162.38
2023-01-28T03:15:02.652Z,103180.69
2023-01-28T03:17:59.387Z,103162.22
2023-01-28T03:20:47.995Z,103166.78
2023-01-28T03:23:40.336Z,103167.69
2023-01-28T03:26:29.069Z,103166.88
2023-01-28T03:29:21.650Z,103172.00
2023-01-28T03:32:07.230Z,103178.13
2023-01-28T03:34:54.439Z,103152.66
2023-01-28T03:37:23.572Z,103165.00
2023-01-28T03:40:04.896Z,103165.09
2023-01-28T03:42:34.007Z,103145.78
2023-01-28T03:45:08.263Z,103158.09
2023-01-28T03:47:36.875Z,103146.66
2023-01-28T03:50:09.978Z,103166.81
2023-01-28T03:52:37.892Z,103163.09
2023-01-28T03:55:14.171Z,103162.34
2023-01-28T03:57:44.763Z,103173.16
2023-01-28T04:00:18.153Z,103181.22
2023-01-28T04:02:46.328Z,103185.38
2023-01-28T04:05:19.938Z,103185.00
2023-01-28T04:07:47.915Z,103193.00
2023-01-28T04:10:16.362Z,103187.75
2023-01-28T04:12:44.365Z,103162.88
2023-01-28T04:15:16.811Z,103178.78
2023-01-28T04:17:48.902Z,103176.06
2023-01-28T04:20:20.294Z,103168.22
2023-01-28T04:22:48.126Z,103164.78
2023-01-28T04:25:16.490Z,103129.47
2023-01-28T04:27:47.727Z,103143.22
2023-01-28T04:30:21.780Z,103143.53
2023-01-28T04:32:50.529Z,103116.22
2023-01-28T04:35:28.989Z,103125.47
2023-01-28T04:37:56.953Z,103145.44
2023-01-28T04:40:24.956Z,103141.88
2023-01-28T04:42:57.718Z,103139.03
2023-01-28T04:45:25.861Z,103143.41
2023-01-28T04:47:53.832Z,103138.25
2023-01-28T04:50:29.143Z,103137.69
2023-01-28T04:52:57.204Z,103155.22
2023-01-28T04:55:26.205Z,103165.72
2023-01-28T04:57:54.178Z,103167.31
2023-01-28T05:00:28.161Z,103174.97
2023-01-28T05:02:56.189Z,103154.38
2023-01-28T05:05:25.180Z,103164.69
2023-01-28T05:07:56.069Z,103184.28
2023-01-28T05:10:26.010Z,103172.19
2023-01-28T05:12:53.993Z,103167.84
2023-01-28T05:15:24.941Z,103161.22
2023-01-28T05:17:56.203Z,103149.44
2023-01-28T05:20:34.164Z,103166.06
2023-01-28T05:23:05.578Z,103164.41
2023-01-28T05:25:33.776Z,103140.53
2023-01-28T05:28:02.100Z,103140.47
2023-01-28T05:30:30.276Z,103139.69
2023-01-28T05:32:58.931Z,103143.34
2023-01-28T05:35:33.394Z,103140.59
2023-01-28T05:38:01.416Z,103127.19
2023-01-28T05:40:31.074Z,103124.81
2023-01-28T05:43:05.955Z,103129.44
2023-01-28T05:45:40.159Z,103146.03
2023-01-28T05:48:08.437Z,103144.75
2023-01-28T05:50:41.915Z,103145.97
2023-01-28T05:53:10.659Z,103153.97
2023-01-28T05:55:43.124Z,103132.69
2023-01-28T05:58:11.456Z,103141.88
2023-01-28T06:00:39.375Z,103140.84
2023-01-28T06:03:07.272Z,103143.63
2023-01-28T06:05:36.211Z,103137.97
2023-01-28T06:08:04.703Z,103153.97
2023-01-28T06:10:35.113Z,103143.31
2023-01-28T06:13:04.451Z,103133.47
2023-01-28T06:15:32.511Z,103128.06
2023-01-28T06:18:00.824Z,103137.97
2023-01-28T06:20:28.979Z,103139.75
2023-01-28T06:22:56.906Z,103132.69
2023-01-28T06:25:24.847Z,103154.81
2023-01-28T06:27:52.883Z,103154.53
2023-01-28T06:30:22.419Z,103150.16
2023-01-28T06:32:56.030Z,103160.78
2023-01-28T06:35:32.939Z,103150.22
2023-01-28T06:38:00.938Z,103144.88
2023-01-28T06:40:29.036Z,103133.28
2023-01-28T06:42:57.208Z,103141.44
2023-01-28T06:45:27.981Z,103141.31
2023-01-28T06:47:56.855Z,103144.50
2023-01-28T06:50:25.149Z,103137.50
2023-01-28T06:52:52.942Z,103145.28
2023-01-28T06:55:20.905Z,103148.06
2023-01-28T06:57:50.032Z,103154.25
2023-01-28T07:00:20.592Z,103158.50
2023-01-28T07:02:52.081Z,103177.09
2023-01-28T07:05:20.109Z,103167.41
2023-01-28T07:07:49.348Z,103151.94
2023-01-28T07:10:18.134Z,103179.41
2023-01-28T07:12:52.215Z,103157.63
2023-01-28T07:15:28.915Z,103177.50
2023-01-28T07:17:59.600Z,103167.06
2023-01-28T07:20:28.204Z,103166.94
2023-01-28T07:22:56.080Z,103161.84
2023-01-28T07:25:23.935Z,103160.81
2023-01-28T07:27:56.496Z,103134.69
2023-01-28T07:30:24.949Z,103171.56
2023-01-28T07:32:57.002Z,103160.53
2023-01-28T07:35:27.311Z,103143.66
2023-01-28T07:37:56.712Z,103146.94
2023-01-28T07:40:25.725Z,103143.47
2023-01-28T07:42:55.529Z,103115.97
2023-01-28T07:45:24.660Z,103124.06
2023-01-28T07:47:59.761Z,103105.81
2023-01-28T07:50:32.514Z,103118.91
2023-01-28T07:53:04.031Z,103100.53
2023-01-28T07:55:32.120Z,103067.28
2023-01-28T07:58:01.584Z,103086.75
2023-01-28T08:00:31.804Z,103064.59
2023-01-28T08:03:01.506Z,103069.56
2023-01-28T08:05:41.078Z,103067.56
2023-01-28T08:08:09.810Z,103063.44
2023-01-28T08:10:38.917Z,103074.16
2023-01-28T08:13:07.479Z,103067.41
2023-01-28T08:15:35.717Z,103064.81
2023-01-28T08:18:04.719Z,103065.56
2023-01-28T08:20:34.193Z,103054.53
2023-01-28T08:23:09.328Z,103072.22
2023-01-28T08:25:37.630Z,103082.03
2023-01-28T08:28:06.601Z,103069.06
2023-01-28T08:30:35.129Z,103081.88
2023-01-28T08:33:03.251Z,103099.44
2023-01-28T08:35:31.611Z,103108.06
2023-01-28T08:38:02.935Z,103122.44
2023-01-28T08:40:31.781Z,103102.59
2023-01-28T08:43:01.003Z,103130.25
2023-01-28T08:45:31.556Z,103132.34
2023-01-28T08:48:02.009Z,103147.91
2023-01-28T08:50:39.239Z,103145.19
2023-01-28T08:53:12.882Z,103158.50
2023-01-28T08:55:41.815Z,103169.19
2023-01-28T08:58:13.681Z,103177.94
2023-01-28T09:00:43.499Z,103190.78
2023-01-28T09:03:12.589Z,103211.34
2023-01-28T09:05:41.089Z,103234.81
2023-01-28T09:08:14.655Z,103252.28
2023-01-28T09:10:42.726Z,103281.53
2023-01-28T09:13:14.037Z,103238.41
2023-01-28T09:15:44.914Z,103246.66
2023-01-28T09:18:15.424Z,103246.81
2023-01-28T09:20:43.326Z,103246.09
2023-01-28T09:23:12.978Z,103257.66
2023-01-28T09:25:41.065Z,103266.50
2023-01-28T09:28:10.232Z,103241.22
2023-01-28T09:30:39.653Z,103264.78
2023-01-28T09:33:09.547Z,103249.97
2023-01-28T09:35:43.054Z,103216.97
2023-01-28T09:38:12.465Z,103168.94
2023-01-28T09:40:44.838Z,103131.22
2023-01-28T09:43:52.806Z,103072.69
2023-01-28T09:46:21.070Z,102962.41
2023-01-28T09:48:51.945Z,102971.22
2023-01-28T09:51:33.002Z,102876.66
2023-01-28T09:54:07.690Z,102798.88
2023-01-28T09:56:44.141Z,102767.19
2023-01-28T09:59:19.581Z,102750.31
2023-01-28T10:01:55.446Z,101861.56
2023-01-28T10:04:40.726Z,102334.84
2023-01-28T10:07:26.135Z,102463.38
2023-01-28T10:10:02.042Z,102506.41
2023-01-28T10:12:50.645Z,102386.41
2023-01-28T10:15:44.514Z,102166.78
2023-01-28T10:18:17.718Z,102169.09
2023-01-28T10:20:50.960Z,102341.19
2023-01-28T10:23:23.788Z,102389.44
2023-01-28T10:25:54.565Z,102234.44
2023-01-28T10:28:25.947Z,102087.91
2023-01-28T10:30:54.734Z,101907.59
2023-01-28T10:33:30.652Z,101790.38
2023-01-28T10:35:58.865Z,101792.13
2023-01-28T10:38:34.059Z,101755.44
2023-01-28T10:41:08.752Z,101776.44
2023-01-28T10:43:41.827Z,101845.59
2023-01-28T10:46:15.371Z,101932.28
2023-01-28T10:48:47.159Z,102015.53
2023-01-28T10:51:15.493Z,102047.97
2023-01-28T10:53:45.561Z,102112.88
2023-01-28T10:56:18.833Z,102110.19
2023-01-28T10:59:00.118Z,102048.88
2023-01-28T11:01:43.907Z,102062.91
2023-01-28T11:04:23.413Z,102131.34
2023-01-28T11:06:57.470Z,102193.63
2023-01-28T11:09:27.781Z,102188.41
2023-01-28T11:11:57.056Z,102164.69
2023-01-28T11:14:27.123Z,102186.56
2023-01-28T11:17:02.150Z,102201.59
2023-01-28T11:19:36.266Z,102256.84
2023-01-28T11:22:05.327Z,102354.34
2023-01-28T11:24:35.858Z,102385.09
2023-01-28T11:27:16.468Z,102381.59
2023-01-28T11:29:46.177Z,102387.78
2023-01-28T11:32:19.217Z,102354.31
2023-01-28T11:34:51.934Z,102241.91
2023-01-28T11:37:22.763Z,102133.13
2023-01-28T11:40:01.625Z,102230.53
2023-01-28T11:42:33.155Z,102286.72
2023-01-28T11:45:01.142Z,102243.72
2023-01-28T11:47:51.023Z,102200.69
2023-01-28T11:50:32.091Z,102201.53
2023-01-28T11:53:17.061Z,102195.44
2023-01-28T11:58:58.586Z,102298.16
2023-01-28T12:01:44.372Z,102313.03
2023-01-28T12:04:22.324Z,102302.50
2023-01-28T12:07:08.276Z,102249.84
2023-01-28T12:09:46.967Z,102107.69
2023-01-28T12:12:32.087Z,102026.97
2023-01-28T12:15:21.832Z,101976.09
2023-01-28T12:18:03.775Z,102042.66
2023-01-28T12:20:40.047Z,102055.03
2023-01-28T12:23:24.840Z,101930.53
2023-01-28T12:26:06.710Z,101908.63
2023-01-28T12:29:02.675Z,101735.25
2023-01-28T12:31:52.570Z,101722.94
2023-01-28T12:34:59.329Z,101691.47
2023-01-28T12:37:41.907Z,101686.13
2023-01-28T12:40:50.619Z,101857.38
2023-01-28T12:43:25.500Z,102146.66
2023-01-28T12:45:58.950Z,102316.81
2023-01-28T12:48:34.250Z,102365.22
2023-01-28T12:51:08.464Z,102381.09
2023-01-28T12:53:41.843Z,102402.00
2023-01-28T12:56:17.948Z,102430.13
2023-01-28T12:58:52.234Z,102385.84
2023-01-28T13:01:29.577Z,102232.25
2023-01-28T13:04:05.436Z,102137.47
2023-01-28T13:06:39.200Z,102064.47
2023-01-28T13:09:17.785Z,102162.44
2023-01-28T13:11:48.086Z,102231.81
2023-01-28T13:14:17.576Z,102321.50
2023-01-28T13:16:45.710Z,102286.63
2023-01-28T13:19:26.658Z,102138.38
2023-01-28T13:21:54.634Z,102121.47
2023-01-28T13:24:33.880Z,102139.06
2023-01-28T13:27:14.261Z,102210.97
2023-01-28T13:29:44.118Z,102267.06
2023-01-28T13:32:33.916Z,102284.50
2023-01-28T13:35:07.653Z,102218.19
2023-01-28T13:37:39.304Z,102088.16
2023-01-28T13:40:25.008Z,102011.13
2023-01-28T13:43:02.547Z,101873.44
2023-01-28T13:45:31.189Z,101867.09
2023-01-28T13:48:08.169Z,101889.03
2023-01-28T13:50:43.139Z,101813.03
2023-01-28T13:53:24.834Z,101731.38
2023-01-28T13:55:56.509Z,101695.41
2023-01-28T13:59:11.873Z,101706.88
2023-01-28T14:02:03.710Z,101746.03
2023-01-28T14:05:02.327Z,101736.81
2023-01-28T14:08:03.340Z,101501.16
2023-01-28T14:10:50.974Z,101548.59
2023-01-28T14:13:47.327Z,101446.03
2023-01-28T14:16:34.978Z,101458.41
2023-01-28T14:19:04.325Z,101467.16
2023-01-28T14:21:39.185Z,101504.94
2023-01-28T14:24:16.980Z,101577.66
2023-01-28T14:26:54.391Z,101596.94
2023-01-28T14:29:35.609Z,101624.06
2023-01-28T14:32:07.378Z,101639.00
2023-01-28T14:34:37.778Z,101638.06
2023-01-28T14:37:09.347Z,101631.19
2023-01-28T14:39:45.321Z,101595.25
2023-01-28T14:42:20.234Z,101604.88
2023-01-28T14:44:54.565Z,101615.38
2023-01-28T14:47:48.485Z,101605.75
2023-01-28T14:50:28.745Z,101621.50
2023-01-28T14:53:40.874Z,101570.78
2023-01-28T14:56:22.992Z,101594.44
2023-01-28T14:58:54.663Z,101597.06
2023-01-28T15:01:24.810Z,101587.44
2023-01-28T15:04:00.077Z,101539.34
2023-01-28T15:06:40.717Z,101502.56
2023-01-28T15:09:13.694Z,101481.63
2023-01-28T15:11:49.221Z,101497.38
2023-01-28T15:14:25.551Z,101509.63
2023-01-28T15:16:54.534Z,101498.25
2023-01-28T15:19:28.956Z,101511.38
2023-01-28T15:21:58.938Z,101493.00
2023-01-28T15:24:27.247Z,101459.78
2023-01-28T15:26:57.213Z,101466.78
2023-01-28T15:29:28.492Z,101452.78
2023-01-28T15:31:56.595Z,101442.34
2023-01-28T15:34:30.127Z,101425.75
2023-01-28T15:36:58.796Z,101402.19
2023-01-28T15:39:28.517Z,101396.94
2023-01-28T15:42:03.101Z,101396.03
2023-01-28T15:44:49.236Z,101397.78
2023-01-28T15:47:19.096Z,101373.34
2023-01-28T15:49:51.779Z,101360.25
2023-01-28T15:52:30.387Z,101391.72
2023-01-28T15:54:59.197Z,101378.63
2023-01-28T15:57:33.497Z,101376.00
2023-01-28T16:00:12.676Z,101357.69
2023-01-28T16:02:45.911Z,101355.09
2023-01-28T16:05:29.126Z,101372.56
2023-01-28T16:07:58.969Z,101364.72
2023-01-28T16:10:30.970Z,101378.72
2023-01-28T16:13:07.326Z,101406.63
2023-01-28T16:15:39.437Z,101409.25
2023-01-28T16:18:08.598Z,101393.53
2023-01-28T16:20:36.687Z,101395.28
2023-01-28T16:23:05.456Z,101395.28
2023-01-28T16:25:44.356Z,101391.78
2023-01-28T16:32:00.773Z,101364.75
2023-01-28T16:34:42.221Z,101349.03
2023-01-28T16:37:11.629Z,101366.47
2023-01-28T16:39:40.652Z,101389.19
2023-01-28T16:42:10.471Z,101381.34
2023-01-28T16:44:38.493Z,101386.56
2023-01-28T16:47:10.913Z,101401.41
2023-01-28T16:49:42.225Z,101379.59
2023-01-28T16:52:12.592Z,101393.56
2023-01-28T16:54:45.445Z,101384.81
2023-01-28T16:57:16.216Z,101393.56
2023-01-28T16:59:44.274Z,101396.19
2023-01-28T17:02:18.388Z,101399.66
2023-01-28T17:04:54.826Z,101407.53
2023-01-28T17:07:41.077Z,101394.44
2023-01-28T17:10:12.075Z,101397.06
2023-01-28T17:12:48.975Z,101395.31
2023-01-28T17:15:18.739Z,101389.19
2023-01-28T17:17:50.954Z,101409.28
2023-01-28T17:20:19.448Z,101399.69
2023-01-28T17:22:48.897Z,101396.19
2023-01-28T17:25:22.800Z,101402.28
2023-01-28T17:27:51.214Z,101409.28
2023-01-28T17:30:21.506Z,101405.78
2023-01-28T17:32:56.805Z,101408.41
2023-01-28T17:35:26.992Z,101392.72
2023-01-28T17:37:55.192Z,101403.16
2023-01-28T17:40:24.379Z,101418.03
2023-01-28T17:42:55.415Z,101397.09
2023-01-28T17:45:25.803Z,101418.91
2023-01-28T17:47:56.789Z,101449.44
2023-01-28T17:50:24.928Z,101481.75
2023-01-28T17:52:56.018Z,101451.22
2023-01-28T17:55:24.498Z,101465.19
2023-01-28T17:57:52.620Z,101481.78
2023-01-28T18:00:28.258Z,101523.69
2023-01-28T18:03:01.626Z,101551.66
2023-01-28T18:05:29.701Z,101547.25
2023-01-28T18:07:57.649Z,101559.50
2023-01-28T18:10:25.602Z,101576.97
2023-01-28T18:12:56.634Z,101601.44
2023-01-28T18:15:25.672Z,101593.56
2023-01-28T18:17:54.831Z,101583.97
2023-01-28T18:20:24.386Z,101587.47
2023-01-28T18:22:52.489Z,101585.72
2023-01-28T18:25:20.593Z,101562.97
2023-01-28T18:27:49.431Z,101569.97
2023-01-28T18:30:18.442Z,101568.25
2023-01-28T18:32:47.414Z,101570.88
2023-01-28T18:35:16.008Z,101560.34
2023-01-28T18:37:46.665Z,101579.56
2023-01-28T18:40:15.137Z,101573.47
2023-01-28T18:42:44.215Z,101561.22
2023-01-28T18:45:12.681Z,101569.94
2023-01-28T18:47:41.481Z,101590.03
2023-01-28T18:50:10.721Z,101614.50
2023-01-28T18:52:39.725Z,101617.13
2023-01-28T18:55:10.763Z,101585.69
2023-01-28T18:57:39.237Z,101568.25
2023-01-28T19:00:08.911Z,101564.72
2023-01-28T19:02:36.882Z,101590.94
2023-01-28T19:05:05.892Z,101599.69
2023-01-28T19:07:33.922Z,101579.56
2023-01-28T19:10:02.597Z,101552.53
2023-01-28T19:12:34.409Z,101549.03
2023-01-28T19:15:02.511Z,101529.81
2023-01-28T19:17:30.687Z,101545.53
2023-01-28T19:19:58.757Z,101559.50
2023-01-28T19:22:28.413Z,101543.78
2023-01-28T19:24:56.507Z,101557.75
2023-01-28T19:27:25.677Z,101578.72
2023-01-28T19:29:55.161Z,101573.47
2023-01-28T19:32:23.238Z,101569.09
2023-01-28T19:34:51.605Z,101576.09
2023-01-28T19:37:19.572Z,101576.97
2023-01-28T19:39:48.621Z,101589.19
2023-01-28T19:42:16.748Z,101574.34
2023-01-28T19:44:44.771Z,101576.09
2023-01-28T19:47:15.587Z,101568.22
2023-01-28T19:49:43.585Z,101541.16
2023-01-28T19:52:11.692Z,101555.16
2023-01-28T19:54:39.737Z,101569.97
2023-01-28T19:57:08.029Z,101543.78
2023-01-28T19:59:38.256Z,101532.41
2023-01-28T20:02:06.286Z,101528.06
2023-01-28T20:04:35.958Z,101527.19
2023-01-28T20:07:04.969Z,101537.66
2023-01-28T20:09:33.179Z,101535.06
2023-01-28T20:12:01.129Z,101543.78
2023-01-28T20:14:29.079Z,101549.91
2023-01-28T20:16:57.106Z,101539.41
2023-01-28T20:19:25.100Z,101528.06
2023-01-28T20:21:54.506Z,101536.81
2023-01-28T20:24:23.601Z,101541.16
2023-01-28T20:26:51.589Z,101542.03
2023-01-28T20:29:22.434Z,101560.38
2023-01-28T20:32:13.457Z,101539.41
2023-01-28T20:34:41.831Z,101562.13
2023-01-28T20:37:21.224Z,101583.06
2023-01-28T20:39:49.276Z,101600.56
2023-01-28T20:42:18.476Z,101598.84
2023-01-28T20:44:48.448Z,101559.53
2023-01-28T20:47:17.404Z,101580.47
2023-01-28T20:49:47.487Z,101583.97
2023-01-28T20:52:17.233Z,101599.72
2023-01-28T20:54:46.691Z,101595.31
2023-01-28T20:57:14.790Z,101631.13
2023-01-28T20:59:42.818Z,101655.59
2023-01-28T21:02:12.026Z,101666.94
2023-01-28T21:04:44.896Z,101690.50
2023-01-28T21:07:14.028Z,101689.69
2023-01-28T21:09:43.891Z,101680.06
2023-01-28T21:12:14.149Z,101650.34
2023-01-28T21:14:42.077Z,101652.97
2023-01-28T21:17:10.081Z,101662.59
2023-01-28T21:19:41.128Z,101661.72
2023-01-28T21:22:10.322Z,101650.34
2023-01-28T21:24:38.395Z,101671.34
2023-01-28T21:27:06.295Z,101681.81
2023-01-28T21:29:35.814Z,101680.06
2023-01-28T21:32:03.669Z,101683.53
2023-01-28T21:34:32.323Z,101718.44
2023-01-28T21:37:02.429Z,101742.94
2023-01-28T21:39:31.389Z,101768.25
2023-01-28T21:41:59.813Z,101781.34
2023-01-28T21:44:27.719Z,101804.06
2023-01-28T21:46:57.033Z,101834.63
2023-01-28T21:49:26.019Z,101789.19
2023-01-28T21:51:54.068Z,101793.56
2023-01-28T21:54:24.849Z,101802.28
2023-01-28T21:56:53.381Z,101809.28
2023-01-28T21:59:30.761Z,101842.47
2023-01-28T22:02:04.379Z,101880.91
2023-01-28T22:04:34.014Z,101893.13
2023-01-28T22:07:03.982Z,101915.81
2023-01-28T22:09:33.553Z,101937.59
2023-01-28T22:12:03.389Z,101959.44
2023-01-28T22:14:31.986Z,102005.75
2023-01-28T22:17:00.128Z,102032.72
2023-01-28T22:19:29.676Z,102057.31
2023-01-28T22:21:58.217Z,102072.16
2023-01-28T22:24:26.458Z,102062.56
2023-01-28T22:26:55.755Z,102024.22
2023-01-28T22:29:25.191Z,101989.22
2023-01-28T22:31:54.871Z,101997.06
2023-01-28T22:34:23.838Z,102013.63
2023-01-28T22:36:53.670Z,102055.56
2023-01-28T22:39:22.063Z,102090.47
2023-01-28T22:41:50.806Z,102127.19
2023-01-28T22:44:20.209Z,102153.34
2023-01-28T22:46:48.677Z,102190.03
2023-01-28T22:49:16.645Z,102198.84
2023-01-28T22:51:44.587Z,102202.31
2023-01-28T22:54:14.942Z,102227.69
2023-01-28T22:56:43.223Z,102230.22
2023-01-28T22:59:11.374Z,102250.34
2023-01-28T23:01:41.380Z,102280.81
2023-01-28T23:04:09.581Z,102311.53
2023-01-28T23:06:39.078Z,102321.06
2023-01-28T23:09:07.009Z,102347.16
2023-01-28T23:11:37.540Z,102389.22
2023-01-28T23:14:24.053Z,102396.84
2023-01-28T23:18:00.298Z,102460.84
2023-01-28T23:20:46.627Z,102488.72
2023-01-28T23:23:35.383Z,102540.25
2023-01-28T23:26:07.072Z,102582.25
2023-01-28T23:28:38.512Z,102605.91
2023-01-28T23:31:06.572Z,102618.81
2023-01-28T23:33:37.013Z,102641.66
2023-01-28T23:36:05.924Z,102645.13
2023-01-28T23:38:34.401Z,102666.81
2023-01-28T23:41:16.417Z,102663.97
2023-01-28T23:43:46.634Z,102699.81
2023-01-28T23:46:16.092Z,102728.47
2023-01-28T23:48:44.312Z,102776.56
2023-01-28T23:51:12.211Z,102816.81
2023-01-28T23:57:04.698Z,102834.63
2023-01-28T23:59:38.788Z,102892.66
